sensor_id;sensor_type;location;lat;lon;timestamp;temperature;humidity
45409;DHT22;31162;51.076;3.784;2022-07-06T00:01:38;14.50;99.90
45409;DHT22;31162;51.076;3.784;2022-07-06T00:04:04;14.50;99.90
45409;DHT22;31162;51.076;3.784;2022-07-06T00:06:31;14.40;99.90
45409;DHT22;31162;51.076;3.784;2022-07-06T00:08:57;14.40;99.90
45409;DHT22;31162;51.076;3.784;2022-07-06T00:11:23;14.30;99.90
45409;DHT22;31162;51.076;3.784;2022-07-06T00:13:49;14.30;99.90
45409;DHT22;31162;51.076;3.784;2022-07-06T00:16:15;14.30;99.90
45409;DHT22;31162;51.076;3.784;2022-07-06T00:18:41;14.10;99.90
45409;DHT22;31162;51.076;3.784;2022-07-06T00:21:07;14.00;99.90
45409;DHT22;31162;51.076;3.784;2022-07-06T00:23:33;14.00;99.90
45409;DHT22;31162;51.076;3.784;2022-07-06T00:25:58;14.20;99.90
45409;DHT22;31162;51.076;3.784;2022-07-06T00:28:24;14.20;99.90
45409;DHT22;31162;51.076;3.784;2022-07-06T00:30:50;14.10;99.90
45409;DHT22;31162;51.076;3.784;2022-07-06T00:33:15;14.20;99.90
45409;DHT22;31162;51.076;3.784;2022-07-06T00:35:41;14.30;99.90
45409;DHT22;31162;51.076;3.784;2022-07-06T00:38:07;14.30;99.90
45409;DHT22;31162;51.076;3.784;2022-07-06T00:40:32;14.20;99.90
45409;DHT22;31162;51.076;3.784;2022-07-06T00:42:58;14.10;99.90
45409;DHT22;31162;51.076;3.784;2022-07-06T00:45:24;14.10;99.90
45409;DHT22;31162;51.076;3.784;2022-07-06T00:47:49;14.20;99.90
45409;DHT22;31162;51.076;3.784;2022-07-06T00:50:16;14.40;99.90
45409;DHT22;31162;51.076;3.784;2022-07-06T00:52:48;14.60;99.90
45409;DHT22;31162;51.076;3.784;2022-07-06T00:55:16;14.70;99.90
45409;DHT22;31162;51.076;3.784;2022-07-06T00:57:42;14.80;99.90
45409;DHT22;31162;51.076;3.784;2022-07-06T01:00:10;15.00;99.90
45409;DHT22;31162;51.076;3.784;2022-07-06T01:02:36;15.00;99.90
45409;DHT22;31162;51.076;3.784;2022-07-06T01:05:08;15.10;99.90
45409;DHT22;31162;51.076;3.784;2022-07-06T01:07:35;15.00;99.90
45409;DHT22;31162;51.076;3.784;2022-07-06T01:10:03;14.90;99.90
45409;DHT22;31162;51.076;3.784;2022-07-06T01:12:29;14.90;99.90
45409;DHT22;31162;51.076;3.784;2022-07-06T01:14:57;15.00;99.90
45409;DHT22;31162;51.076;3.784;2022-07-06T01:17:23;15.00;99.90
45409;DHT22;31162;51.076;3.784;2022-07-06T01:19:49;15.00;99.90
45409;DHT22;31162;51.076;3.784;2022-07-06T01:22:15;14.80;99.90
45409;DHT22;31162;51.076;3.784;2022-07-06T01:24:41;14.80;99.90
45409;DHT22;31162;51.076;3.784;2022-07-06T01:27:07;14.80;99.90
45409;DHT22;31162;51.076;3.784;2022-07-06T01:29:33;14.90;99.90
45409;DHT22;31162;51.076;3.784;2022-07-06T01:32:00;14.90;99.90
45409;DHT22;31162;51.076;3.784;2022-07-06T01:34:26;14.90;99.90
45409;DHT22;31162;51.076;3.784;2022-07-06T01:36:52;14.80;99.90
45409;DHT22;31162;51.076;3.784;2022-07-06T01:39:17;14.70;99.90
45409;DHT22;31162;51.076;3.784;2022-07-06T01:41:43;14.70;99.90
45409;DHT22;31162;51.076;3.784;2022-07-06T01:44:11;14.80;99.90
45409;DHT22;31162;51.076;3.784;2022-07-06T01:46:37;14.90;99.90
45409;DHT22;31162;51.076;3.784;2022-07-06T01:49:04;14.80;99.90
45409;DHT22;31162;51.076;3.784;2022-07-06T01:51:30;14.60;99.90
45409;DHT22;31162;51.076;3.784;2022-07-06T01:53:55;14.60;99.90
45409;DHT22;31162;51.076;3.784;2022-07-06T01:56:21;14.60;99.90
45409;DHT22;31162;51.076;3.784;2022-07-06T01:58:47;14.60;99.90
45409;DHT22;31162;51.076;3.784;2022-07-06T02:01:18;14.40;99.90
45409;DHT22;31162;51.076;3.784;2022-07-06T02:03:44;14.20;99.90
45409;DHT22;31162;51.076;3.784;2022-07-06T02:06:11;14.20;99.90
45409;DHT22;31162;51.076;3.784;2022-07-06T02:08:41;14.30;99.90
45409;DHT22;31162;51.076;3.784;2022-07-06T02:11:08;14.40;99.90
45409;DHT22;31162;51.076;3.784;2022-07-06T02:13:34;14.50;99.90
45409;DHT22;31162;51.076;3.784;2022-07-06T02:16:00;14.60;99.90
45409;DHT22;31162;51.076;3.784;2022-07-06T02:18:25;14.70;99.90
45409;DHT22;31162;51.076;3.784;2022-07-06T02:20:51;14.80;99.90
45409;DHT22;31162;51.076;3.784;2022-07-06T02:23:17;14.80;99.90
45409;DHT22;31162;51.076;3.784;2022-07-06T02:25:45;14.80;99.90
45409;DHT22;31162;51.076;3.784;2022-07-06T02:28:10;14.60;99.90
45409;DHT22;31162;51.076;3.784;2022-07-06T02:30:36;14.50;99.90
45409;DHT22;31162;51.076;3.784;2022-07-06T02:33:01;14.40;99.90
45409;DHT22;31162;51.076;3.784;2022-07-06T02:35:27;14.30;99.90
45409;DHT22;31162;51.076;3.784;2022-07-06T02:37:53;14.30;99.90
45409;DHT22;31162;51.076;3.784;2022-07-06T02:40:19;14.20;99.90
45409;DHT22;31162;51.076;3.784;2022-07-06T02:42:44;14.10;99.90
45409;DHT22;31162;51.076;3.784;2022-07-06T02:45:10;14.00;99.90
45409;DHT22;31162;51.076;3.784;2022-07-06T02:47:36;14.00;99.90
45409;DHT22;31162;51.076;3.784;2022-07-06T02:50:04;13.90;99.90
45409;DHT22;31162;51.076;3.784;2022-07-06T02:52:29;13.80;99.90
45409;DHT22;31162;51.076;3.784;2022-07-06T02:54:55;13.70;99.90
45409;DHT22;31162;51.076;3.784;2022-07-06T02:57:21;13.60;99.90
45409;DHT22;31162;51.076;3.784;2022-07-06T02:59:46;13.50;99.90
45409;DHT22;31162;51.076;3.784;2022-07-06T03:02:15;13.40;99.90
45409;DHT22;31162;51.076;3.784;2022-07-06T03:04:41;13.40;99.90
45409;DHT22;31162;51.076;3.784;2022-07-06T03:07:07;13.30;99.90
45409;DHT22;31162;51.076;3.784;2022-07-06T03:09:32;13.20;99.90
45409;DHT22;31162;51.076;3.784;2022-07-06T03:12:01;13.20;99.90
45409;DHT22;31162;51.076;3.784;2022-07-06T03:14:27;13.20;99.90
45409;DHT22;31162;51.076;3.784;2022-07-06T03:16:53;13.40;99.90
45409;DHT22;31162;51.076;3.784;2022-07-06T03:19:19;13.50;99.90
45409;DHT22;31162;51.076;3.784;2022-07-06T03:21:45;13.40;99.90
45409;DHT22;31162;51.076;3.784;2022-07-06T03:24:11;13.40;99.90
45409;DHT22;31162;51.076;3.784;2022-07-06T03:26:36;13.40;99.90
45409;DHT22;31162;51.076;3.784;2022-07-06T03:29:02;13.40;99.90
45409;DHT22;31162;51.076;3.784;2022-07-06T03:31:28;13.40;99.90
45409;DHT22;31162;51.076;3.784;2022-07-06T03:33:53;13.30;99.90
45409;DHT22;31162;51.076;3.784;2022-07-06T03:36:19;13.20;99.90
45409;DHT22;31162;51.076;3.784;2022-07-06T03:38:45;13.10;99.90
45409;DHT22;31162;51.076;3.784;2022-07-06T03:41:10;13.00;99.90
45409;DHT22;31162;51.076;3.784;2022-07-06T03:43:36;12.90;99.90
45409;DHT22;31162;51.076;3.784;2022-07-06T03:46:03;12.90;99.90
45409;DHT22;31162;51.076;3.784;2022-07-06T03:48:30;12.90;99.90
45409;DHT22;31162;51.076;3.784;2022-07-06T03:50:56;13.00;99.90
45409;DHT22;31162;51.076;3.784;2022-07-06T03:53:22;13.10;99.90
45409;DHT22;31162;51.076;3.784;2022-07-06T03:55:47;13.00;99.90
45409;DHT22;31162;51.076;3.784;2022-07-06T03:58:33;13.10;99.90
45409;DHT22;31162;51.076;3.784;2022-07-06T04:00:59;13.10;99.90
45409;DHT22;31162;51.076;3.784;2022-07-06T04:03:25;13.20;99.90
45409;DHT22;31162;51.076;3.784;2022-07-06T04:05:50;13.20;99.90
45409;DHT22;31162;51.076;3.784;2022-07-06T04:08:16;13.30;99.90
45409;DHT22;31162;51.076;3.784;2022-07-06T04:10:41;13.50;99.90
45409;DHT22;31162;51.076;3.784;2022-07-06T04:13:07;13.70;99.90
45409;DHT22;31162;51.076;3.784;2022-07-06T04:15:33;13.70;99.90
45409;DHT22;31162;51.076;3.784;2022-07-06T04:17:58;13.70;99.90
45409;DHT22;31162;51.076;3.784;2022-07-06T04:20:24;13.70;99.90
45409;DHT22;31162;51.076;3.784;2022-07-06T04:22:51;13.80;99.90
45409;DHT22;31162;51.076;3.784;2022-07-06T04:25:18;13.90;99.90
45409;DHT22;31162;51.076;3.784;2022-07-06T04:27:44;14.00;99.90
45409;DHT22;31162;51.076;3.784;2022-07-06T04:30:10;14.10;99.90
45409;DHT22;31162;51.076;3.784;2022-07-06T04:32:36;14.10;99.90
45409;DHT22;31162;51.076;3.784;2022-07-06T04:35:03;14.00;99.90
45409;DHT22;31162;51.076;3.784;2022-07-06T04:37:29;14.00;99.90
45409;DHT22;31162;51.076;3.784;2022-07-06T04:39:54;14.20;99.90
45409;DHT22;31162;51.076;3.784;2022-07-06T04:42:20;14.20;99.90
45409;DHT22;31162;51.076;3.784;2022-07-06T04:44:46;14.30;99.90
45409;DHT22;31162;51.076;3.784;2022-07-06T04:47:12;14.40;99.90
45409;DHT22;31162;51.076;3.784;2022-07-06T04:49:38;14.50;99.90
45409;DHT22;31162;51.076;3.784;2022-07-06T04:52:04;14.50;99.90
45409;DHT22;31162;51.076;3.784;2022-07-06T04:54:33;14.60;99.90
45409;DHT22;31162;51.076;3.784;2022-07-06T04:56:58;14.60;99.90
45409;DHT22;31162;51.076;3.784;2022-07-06T04:59:24;14.70;99.90
45409;DHT22;31162;51.076;3.784;2022-07-06T05:01:49;14.80;99.90
45409;DHT22;31162;51.076;3.784;2022-07-06T05:04:15;15.10;99.90
45409;DHT22;31162;51.076;3.784;2022-07-06T05:06:43;15.30;99.90
45409;DHT22;31162;51.076;3.784;2022-07-06T05:09:09;15.50;99.90
45409;DHT22;31162;51.076;3.784;2022-07-06T05:11:35;15.60;99.90
45409;DHT22;31162;51.076;3.784;2022-07-06T05:14:02;15.80;99.90
45409;DHT22;31162;51.076;3.784;2022-07-06T05:16:28;16.10;99.90
45409;DHT22;31162;51.076;3.784;2022-07-06T05:18:54;16.50;99.90
45409;DHT22;31162;51.076;3.784;2022-07-06T05:21:19;16.70;99.90
45409;DHT22;31162;51.076;3.784;2022-07-06T05:23:45;16.90;99.90
45409;DHT22;31162;51.076;3.784;2022-07-06T05:26:11;16.90;99.90
45409;DHT22;31162;51.076;3.784;2022-07-06T05:28:36;17.00;99.90
45409;DHT22;31162;51.076;3.784;2022-07-06T05:31:02;17.20;99.90
45409;DHT22;31162;51.076;3.784;2022-07-06T05:33:28;17.60;99.90
45409;DHT22;31162;51.076;3.784;2022-07-06T05:35:53;18.10;99.90
45409;DHT22;31162;51.076;3.784;2022-07-06T05:38:19;18.80;99.90
45409;DHT22;31162;51.076;3.784;2022-07-06T05:40:45;19.20;99.90
45409;DHT22;31162;51.076;3.784;2022-07-06T05:43:11;19.30;99.90
45409;DHT22;31162;51.076;3.784;2022-07-06T05:45:36;19.50;99.90
45409;DHT22;31162;51.076;3.784;2022-07-06T05:48:02;19.80;99.90
45409;DHT22;31162;51.076;3.784;2022-07-06T05:50:47;20.10;99.90
45409;DHT22;31162;51.076;3.784;2022-07-06T05:53:15;20.50;99.90
45409;DHT22;31162;51.076;3.784;2022-07-06T05:55:41;20.80;99.90
45409;DHT22;31162;51.076;3.784;2022-07-06T05:58:07;21.00;99.90
45409;DHT22;31162;51.076;3.784;2022-07-06T06:00:32;21.20;99.90
45409;DHT22;31162;51.076;3.784;2022-07-06T06:02:59;21.50;99.90
45409;DHT22;31162;51.076;3.784;2022-07-06T06:05:25;21.90;99.90
45409;DHT22;31162;51.076;3.784;2022-07-06T06:07:50;22.30;99.90
45409;DHT22;31162;51.076;3.784;2022-07-06T06:10:19;22.50;99.90
45409;DHT22;31162;51.076;3.784;2022-07-06T06:12:45;22.80;99.90
45409;DHT22;31162;51.076;3.784;2022-07-06T06:15:11;22.90;99.90
45409;DHT22;31162;51.076;3.784;2022-07-06T06:17:38;22.70;99.90
45409;DHT22;31162;51.076;3.784;2022-07-06T06:20:06;23.10;99.90
45409;DHT22;31162;51.076;3.784;2022-07-06T06:22:48;23.60;99.90
45409;DHT22;31162;51.076;3.784;2022-07-06T06:25:15;23.70;99.90
45409;DHT22;31162;51.076;3.784;2022-07-06T06:27:41;23.70;99.90
45409;DHT22;31162;51.076;3.784;2022-07-06T06:30:08;23.80;99.90
45409;DHT22;31162;51.076;3.784;2022-07-06T06:32:34;23.80;99.90
45409;DHT22;31162;51.076;3.784;2022-07-06T06:34:59;23.70;99.90
45409;DHT22;31162;51.076;3.784;2022-07-06T06:37:25;23.90;99.90
45409;DHT22;31162;51.076;3.784;2022-07-06T06:39:51;24.20;99.90
45409;DHT22;31162;51.076;3.784;2022-07-06T06:42:16;24.90;99.90
45409;DHT22;31162;51.076;3.784;2022-07-06T06:44:42;25.40;98.90
45409;DHT22;31162;51.076;3.784;2022-07-06T06:47:08;25.90;97.90
45409;DHT22;31162;51.076;3.784;2022-07-06T06:49:33;26.30;96.30
45409;DHT22;31162;51.076;3.784;2022-07-06T06:51:59;27.20;94.50
45409;DHT22;31162;51.076;3.784;2022-07-06T06:54:24;29.10;92.30
45409;DHT22;31162;51.076;3.784;2022-07-06T06:56:50;31.90;85.80
45409;DHT22;31162;51.076;3.784;2022-07-06T06:59:19;33.80;77.80
45409;DHT22;31162;51.076;3.784;2022-07-06T07:01:44;34.90;74.20
45409;DHT22;31162;51.076;3.784;2022-07-06T07:04:10;35.50;70.70
45409;DHT22;31162;51.076;3.784;2022-07-06T07:06:36;35.70;68.60
45409;DHT22;31162;51.076;3.784;2022-07-06T07:09:01;36.10;66.80
45409;DHT22;31162;51.076;3.784;2022-07-06T07:11:27;36.50;65.50
45409;DHT22;31162;51.076;3.784;2022-07-06T07:13:53;36.90;64.60
45409;DHT22;31162;51.076;3.784;2022-07-06T07:16:18;36.90;63.90
45409;DHT22;31162;51.076;3.784;2022-07-06T07:18:44;36.70;64.10
45409;DHT22;31162;51.076;3.784;2022-07-06T07:21:10;37.00;63.40
45409;DHT22;31162;51.076;3.784;2022-07-06T07:23:35;37.00;62.50
45409;DHT22;31162;51.076;3.784;2022-07-06T07:26:01;36.40;63.10
45409;DHT22;31162;51.076;3.784;2022-07-06T07:28:27;35.70;63.20
45409;DHT22;31162;51.076;3.784;2022-07-06T07:30:52;35.00;62.50
45409;DHT22;31162;51.076;3.784;2022-07-06T07:33:18;34.90;62.70
45409;DHT22;31162;51.076;3.784;2022-07-06T07:35:43;34.80;63.30
45409;DHT22;31162;51.076;3.784;2022-07-06T07:38:09;35.90;62.90
45409;DHT22;31162;51.076;3.784;2022-07-06T07:40:35;36.90;61.10
45409;DHT22;31162;51.076;3.784;2022-07-06T07:43:01;37.00;60.10
45409;DHT22;31162;51.076;3.784;2022-07-06T07:45:26;37.50;59.40
45409;DHT22;31162;51.076;3.784;2022-07-06T07:47:54;37.80;58.00
45409;DHT22;31162;51.076;3.784;2022-07-06T07:50:20;37.50;58.30
45409;DHT22;31162;51.076;3.784;2022-07-06T07:52:46;36.70;59.70
45409;DHT22;31162;51.076;3.784;2022-07-06T07:55:12;36.40;59.50
45409;DHT22;31162;51.076;3.784;2022-07-06T07:57:37;36.80;59.70
45409;DHT22;31162;51.076;3.784;2022-07-06T08:00:05;37.40;59.00
45409;DHT22;31162;51.076;3.784;2022-07-06T08:02:31;37.70;59.00
45409;DHT22;31162;51.076;3.784;2022-07-06T08:04:56;39.10;58.10
45409;DHT22;31162;51.076;3.784;2022-07-06T08:07:22;39.60;57.80
45409;DHT22;31162;51.076;3.784;2022-07-06T08:09:47;38.00;57.80
45409;DHT22;31162;51.076;3.784;2022-07-06T08:12:13;35.80;58.70
45409;DHT22;31162;51.076;3.784;2022-07-06T08:14:39;34.30;60.90
45409;DHT22;31162;51.076;3.784;2022-07-06T08:17:05;34.80;61.00
45409;DHT22;31162;51.076;3.784;2022-07-06T08:19:31;37.10;59.10
45409;DHT22;31162;51.076;3.784;2022-07-06T08:21:57;39.00;57.30
45409;DHT22;31162;51.076;3.784;2022-07-06T08:24:22;40.20;57.10
45409;DHT22;31162;51.076;3.784;2022-07-06T08:26:49;39.30;56.40
45409;DHT22;31162;51.076;3.784;2022-07-06T08:29:14;38.10;57.00
45409;DHT22;31162;51.076;3.784;2022-07-06T08:31:40;36.30;58.50
45409;DHT22;31162;51.076;3.784;2022-07-06T08:34:06;34.60;59.80
45409;DHT22;31162;51.076;3.784;2022-07-06T08:36:32;33.30;61.90
45409;DHT22;31162;51.076;3.784;2022-07-06T08:38:58;33.40;61.30
45409;DHT22;31162;51.076;3.784;2022-07-06T08:41:25;33.60;60.90
45409;DHT22;31162;51.076;3.784;2022-07-06T08:43:52;32.20;61.70
45409;DHT22;31162;51.076;3.784;2022-07-06T08:46:18;31.50;62.20
45409;DHT22;31162;51.076;3.784;2022-07-06T08:48:45;31.10;63.60
45409;DHT22;31162;51.076;3.784;2022-07-06T08:51:13;30.70;64.30
45409;DHT22;31162;51.076;3.784;2022-07-06T08:53:40;30.90;64.90
45409;DHT22;31162;51.076;3.784;2022-07-06T08:56:06;31.40;63.60
45409;DHT22;31162;51.076;3.784;2022-07-06T08:58:32;31.60;64.00
45409;DHT22;31162;51.076;3.784;2022-07-06T09:01:01;31.00;63.70
45409;DHT22;31162;51.076;3.784;2022-07-06T09:03:27;30.60;64.90
45409;DHT22;31162;51.076;3.784;2022-07-06T09:06:00;30.30;64.80
45409;DHT22;31162;51.076;3.784;2022-07-06T09:08:31;30.00;65.30
45409;DHT22;31162;51.076;3.784;2022-07-06T09:10:57;29.70;66.00
45409;DHT22;31162;51.076;3.784;2022-07-06T09:13:23;28.90;67.30
45409;DHT22;31162;51.076;3.784;2022-07-06T09:15:49;28.20;68.30
45409;DHT22;31162;51.076;3.784;2022-07-06T09:18:14;28.30;68.10
45409;DHT22;31162;51.076;3.784;2022-07-06T09:20:41;29.30;67.50
45409;DHT22;31162;51.076;3.784;2022-07-06T09:23:06;29.90;65.10
45409;DHT22;31162;51.076;3.784;2022-07-06T09:25:34;30.30;66.10
45409;DHT22;31162;51.076;3.784;2022-07-06T09:28:00;30.90;63.80
45409;DHT22;31162;51.076;3.784;2022-07-06T09:30:27;30.50;63.50
45409;DHT22;31162;51.076;3.784;2022-07-06T09:32:56;30.40;65.90
45409;DHT22;31162;51.076;3.784;2022-07-06T09:38:06;32.30;63.90
45409;DHT22;31162;51.076;3.784;2022-07-06T09:40:37;32.10;64.30
45409;DHT22;31162;51.076;3.784;2022-07-06T09:43:10;32.70;63.30
45409;DHT22;31162;51.076;3.784;2022-07-06T09:45:37;32.80;63.50
45409;DHT22;31162;51.076;3.784;2022-07-06T09:48:10;31.80;63.20
45409;DHT22;31162;51.076;3.784;2022-07-06T09:51:02;30.60;65.00
45409;DHT22;31162;51.076;3.784;2022-07-06T09:53:28;29.70;64.90
45409;DHT22;31162;51.076;3.784;2022-07-06T09:55:56;29.90;65.70
45409;DHT22;31162;51.076;3.784;2022-07-06T09:58:25;29.30;65.60
45409;DHT22;31162;51.076;3.784;2022-07-06T10:00:51;29.20;66.30
45409;DHT22;31162;51.076;3.784;2022-07-06T10:03:18;29.50;66.30
45409;DHT22;31162;51.076;3.784;2022-07-06T10:05:46;29.90;66.90
45409;DHT22;31162;51.076;3.784;2022-07-06T10:08:16;30.00;66.40
45409;DHT22;31162;51.076;3.784;2022-07-06T10:10:43;29.80;66.20
45409;DHT22;31162;51.076;3.784;2022-07-06T10:13:09;30.40;66.10
45409;DHT22;31162;51.076;3.784;2022-07-06T10:15:37;31.70;63.20
45409;DHT22;31162;51.076;3.784;2022-07-06T10:18:05;31.80;63.60
45409;DHT22;31162;51.076;3.784;2022-07-06T10:20:33;31.10;63.60
45409;DHT22;31162;51.076;3.784;2022-07-06T10:23:03;30.10;65.60
45409;DHT22;31162;51.076;3.784;2022-07-06T10:25:29;29.60;66.60
45409;DHT22;31162;51.076;3.784;2022-07-06T10:27:55;29.40;65.50
45409;DHT22;31162;51.076;3.784;2022-07-06T10:30:22;29.30;65.80
45409;DHT22;31162;51.076;3.784;2022-07-06T10:32:49;29.40;66.10
45409;DHT22;31162;51.076;3.784;2022-07-06T10:35:17;30.30;67.00
45409;DHT22;31162;51.076;3.784;2022-07-06T10:38:06;31.70;64.50
45409;DHT22;31162;51.076;3.784;2022-07-06T10:40:37;33.00;63.30
45409;DHT22;31162;51.076;3.784;2022-07-06T10:43:21;33.70;63.00
45409;DHT22;31162;51.076;3.784;2022-07-06T10:50:39;34.30;61.00
45409;DHT22;31162;51.076;3.784;2022-07-06T10:53:24;34.50;61.40
45409;DHT22;31162;51.076;3.784;2022-07-06T10:55:52;34.80;61.60
45409;DHT22;31162;51.076;3.784;2022-07-06T10:58:50;35.60;58.80
45409;DHT22;31162;51.076;3.784;2022-07-06T11:01:20;32.80;61.00
45409;DHT22;31162;51.076;3.784;2022-07-06T11:06:22;32.20;62.90
45409;DHT22;31162;51.076;3.784;2022-07-06T11:09:03;32.20;62.10
45409;DHT22;31162;51.076;3.784;2022-07-06T11:14:14;31.90;62.40
45409;DHT22;31162;51.076;3.784;2022-07-06T11:24:11;32.40;60.40
45409;DHT22;31162;51.076;3.784;2022-07-06T11:26:37;32.50;61.20
45409;DHT22;31162;51.076;3.784;2022-07-06T11:29:06;32.60;61.10
45409;DHT22;31162;51.076;3.784;2022-07-06T11:31:36;33.40;60.10
45409;DHT22;31162;51.076;3.784;2022-07-06T11:34:03;34.40;59.90
45409;DHT22;31162;51.076;3.784;2022-07-06T11:36:29;35.60;57.40
45409;DHT22;31162;51.076;3.784;2022-07-06T11:38:55;35.80;57.90
45409;DHT22;31162;51.076;3.784;2022-07-06T11:41:21;36.60;57.60
45409;DHT22;31162;51.076;3.784;2022-07-06T11:43:47;36.20;57.40
45409;DHT22;31162;51.076;3.784;2022-07-06T11:46:41;35.60;58.20
45409;DHT22;31162;51.076;3.784;2022-07-06T11:49:08;36.30;57.10
45409;DHT22;31162;51.076;3.784;2022-07-06T11:51:36;37.60;55.60
45409;DHT22;31162;51.076;3.784;2022-07-06T11:54:11;38.10;55.30
45409;DHT22;31162;51.076;3.784;2022-07-06T11:56:37;38.10;55.20
45409;DHT22;31162;51.076;3.784;2022-07-06T11:59:03;38.40;54.00
45409;DHT22;31162;51.076;3.784;2022-07-06T12:01:30;38.90;55.20
45409;DHT22;31162;51.076;3.784;2022-07-06T12:04:00;38.50;54.40
45409;DHT22;31162;51.076;3.784;2022-07-06T12:06:27;35.80;56.20
45409;DHT22;31162;51.076;3.784;2022-07-06T12:08:58;35.00;56.80
45409;DHT22;31162;51.076;3.784;2022-07-06T12:11:25;35.60;55.80
45409;DHT22;31162;51.076;3.784;2022-07-06T12:13:52;35.60;56.10
45409;DHT22;31162;51.076;3.784;2022-07-06T12:16:19;35.70;56.80
45409;DHT22;31162;51.076;3.784;2022-07-06T12:18:47;35.50;58.00
45409;DHT22;31162;51.076;3.784;2022-07-06T12:21:18;35.20;58.00
45409;DHT22;31162;51.076;3.784;2022-07-06T12:23:48;34.40;57.50
45409;DHT22;31162;51.076;3.784;2022-07-06T12:26:15;33.00;59.80
45409;DHT22;31162;51.076;3.784;2022-07-06T12:28:42;31.90;61.00
45409;DHT22;31162;51.076;3.784;2022-07-06T12:31:09;31.50;62.10
45409;DHT22;31162;51.076;3.784;2022-07-06T12:33:35;31.20;62.90
45409;DHT22;31162;51.076;3.784;2022-07-06T12:36:14;30.80;62.10
45409;DHT22;31162;51.076;3.784;2022-07-06T12:38:47;30.80;63.00
45409;DHT22;31162;51.076;3.784;2022-07-06T12:41:31;30.50;62.90
45409;DHT22;31162;51.076;3.784;2022-07-06T12:44:05;30.10;63.10
45409;DHT22;31162;51.076;3.784;2022-07-06T12:46:39;29.60;63.30
45409;DHT22;31162;51.076;3.784;2022-07-06T12:49:22;29.30;65.30
45409;DHT22;31162;51.076;3.784;2022-07-06T12:52:00;29.60;64.70
45409;DHT22;31162;51.076;3.784;2022-07-06T12:59:26;29.40;62.70
45409;DHT22;31162;51.076;3.784;2022-07-06T13:01:53;28.90;64.00
45409;DHT22;31162;51.076;3.784;2022-07-06T13:04:27;28.50;64.00
45409;DHT22;31162;51.076;3.784;2022-07-06T13:06:53;28.40;65.80
45409;DHT22;31162;51.076;3.784;2022-07-06T13:09:20;28.80;66.40
45409;DHT22;31162;51.076;3.784;2022-07-06T13:11:47;29.40;65.30
45409;DHT22;31162;51.076;3.784;2022-07-06T13:14:17;29.60;65.40
45409;DHT22;31162;51.076;3.784;2022-07-06T13:16:44;29.90;65.80
45409;DHT22;31162;51.076;3.784;2022-07-06T13:19:10;30.20;63.70
45409;DHT22;31162;51.076;3.784;2022-07-06T13:21:36;29.60;65.50
45409;DHT22;31162;51.076;3.784;2022-07-06T13:24:03;29.50;65.20
45409;DHT22;31162;51.076;3.784;2022-07-06T13:26:29;29.60;66.00
45409;DHT22;31162;51.076;3.784;2022-07-06T13:28:57;29.80;66.60
45409;DHT22;31162;51.076;3.784;2022-07-06T13:31:24;30.00;66.30
45409;DHT22;31162;51.076;3.784;2022-07-06T13:33:50;30.10;65.50
45409;DHT22;31162;51.076;3.784;2022-07-06T13:36:16;29.90;66.60
45409;DHT22;31162;51.076;3.784;2022-07-06T13:38:41;29.80;65.40
45409;DHT22;31162;51.076;3.784;2022-07-06T13:41:08;29.90;66.40
45409;DHT22;31162;51.076;3.784;2022-07-06T13:43:33;30.00;65.90
45409;DHT22;31162;51.076;3.784;2022-07-06T13:46:03;30.30;65.80
45409;DHT22;31162;51.076;3.784;2022-07-06T13:48:30;30.80;65.60
45409;DHT22;31162;51.076;3.784;2022-07-06T13:50:56;31.10;64.90
45409;DHT22;31162;51.076;3.784;2022-07-06T13:53:21;31.20;65.00
45409;DHT22;31162;51.076;3.784;2022-07-06T13:55:47;31.00;64.70
45409;DHT22;31162;51.076;3.784;2022-07-06T13:58:13;30.90;65.10
45409;DHT22;31162;51.076;3.784;2022-07-06T14:00:38;31.00;64.30
45409;DHT22;31162;51.076;3.784;2022-07-06T14:03:04;30.80;64.70
45409;DHT22;31162;51.076;3.784;2022-07-06T14:05:30;30.80;64.80
45409;DHT22;31162;51.076;3.784;2022-07-06T14:07:56;30.90;65.70
45409;DHT22;31162;51.076;3.784;2022-07-06T14:10:22;31.00;64.70
45409;DHT22;31162;51.076;3.784;2022-07-06T14:12:48;31.10;64.20
45409;DHT22;31162;51.076;3.784;2022-07-06T14:15:14;31.00;64.20
45409;DHT22;31162;51.076;3.784;2022-07-06T14:17:40;30.90;64.80
45409;DHT22;31162;51.076;3.784;2022-07-06T14:20:06;30.90;65.20
45409;DHT22;31162;51.076;3.784;2022-07-06T14:22:32;30.90;64.50
45409;DHT22;31162;51.076;3.784;2022-07-06T14:24:58;31.00;64.40
45409;DHT22;31162;51.076;3.784;2022-07-06T14:27:24;31.00;64.50
45409;DHT22;31162;51.076;3.784;2022-07-06T14:29:50;30.90;65.00
45409;DHT22;31162;51.076;3.784;2022-07-06T14:32:16;30.70;65.40
45409;DHT22;31162;51.076;3.784;2022-07-06T14:34:41;30.40;65.10
45409;DHT22;31162;51.076;3.784;2022-07-06T14:37:07;30.10;65.80
45409;DHT22;31162;51.076;3.784;2022-07-06T14:39:33;29.60;66.90
45409;DHT22;31162;51.076;3.784;2022-07-06T14:41:59;29.20;67.30
45409;DHT22;31162;51.076;3.784;2022-07-06T14:44:24;28.40;69.10
45409;DHT22;31162;51.076;3.784;2022-07-06T14:46:51;27.70;70.00
45409;DHT22;31162;51.076;3.784;2022-07-06T14:49:17;27.10;71.80
45409;DHT22;31162;51.076;3.784;2022-07-06T14:51:43;27.00;72.30
45409;DHT22;31162;51.076;3.784;2022-07-06T14:54:11;26.90;73.50
45409;DHT22;31162;51.076;3.784;2022-07-06T14:56:37;26.90;72.80
45409;DHT22;31162;51.076;3.784;2022-07-06T14:59:02;27.00;73.30
45409;DHT22;31162;51.076;3.784;2022-07-06T15:01:28;27.00;72.60
45409;DHT22;31162;51.076;3.784;2022-07-06T15:03:54;27.00;72.50
45409;DHT22;31162;51.076;3.784;2022-07-06T15:06:19;27.50;72.50
45409;DHT22;31162;51.076;3.784;2022-07-06T15:08:45;28.00;71.40
45409;DHT22;31162;51.076;3.784;2022-07-06T15:11:12;28.70;71.00
45409;DHT22;31162;51.076;3.784;2022-07-06T15:13:38;29.30;69.70
45409;DHT22;31162;51.076;3.784;2022-07-06T15:16:04;29.40;69.40
45409;DHT22;31162;51.076;3.784;2022-07-06T15:18:30;29.30;69.30
45409;DHT22;31162;51.076;3.784;2022-07-06T15:20:56;29.30;69.80
45409;DHT22;31162;51.076;3.784;2022-07-06T15:23:22;29.30;70.30
45409;DHT22;31162;51.076;3.784;2022-07-06T15:25:48;29.40;68.60
45409;DHT22;31162;51.076;3.784;2022-07-06T15:28:14;29.80;68.90
45409;DHT22;31162;51.076;3.784;2022-07-06T15:30:41;30.00;67.50
45409;DHT22;31162;51.076;3.784;2022-07-06T15:33:07;30.00;67.30
45409;DHT22;31162;51.076;3.784;2022-07-06T15:35:33;30.00;67.40
45409;DHT22;31162;51.076;3.784;2022-07-06T15:37:59;29.90;66.20
45409;DHT22;31162;51.076;3.784;2022-07-06T15:40:36;29.10;66.30
45409;DHT22;31162;51.076;3.784;2022-07-06T15:43:17;28.00;68.50
45409;DHT22;31162;51.076;3.784;2022-07-06T15:45:42;27.50;69.80
45409;DHT22;31162;51.076;3.784;2022-07-06T15:48:08;27.50;69.50
45409;DHT22;31162;51.076;3.784;2022-07-06T15:50:34;27.60;70.30
45409;DHT22;31162;51.076;3.784;2022-07-06T15:53:03;27.70;69.50
45409;DHT22;31162;51.076;3.784;2022-07-06T15:55:29;27.80;68.80